<?xml version="1.0" encoding="UTF-8" standalone="no" ?>
<gpx xmlns="http://www.topografix.com/GPX/1/1" xmlns:xsi="http://www.w3.org/2001/XMLSchema-instance" xsi:schemaLocation="http://www.topografix.com/GPX/1/1 http://www.topografix.com/GPX/1/1/gpx.xsd" version="1.1" creator="VisuGPX - https://www.visugpx.com">
  <metadata>
    <name>2022-06-13-46-Castelnau-Montratier</name>
    <desc><![CDATA[Randonnée de 11km pour 200m de dénivelé positif. deux bonnes côtes seront à gravir sur ce beau parcours, passage par l'église de Thézels, puis le causse et ces beaux paysages ]]></desc>
  </metadata>
  <trk>
    <name><![CDATA[14933251-Castelnau]]></name>
    <trkseg>
      <trkpt lat="44.27513" lon="1.33857">
        <ele>248</ele>
        <time>2022-06-10T14:01:44Z</time>
      </trkpt>
      <trkpt lat="44.27522" lon="1.33785">
        <ele>248</ele>
        <time>2022-06-10T14:02:54Z</time>
      </trkpt>
      <trkpt lat="44.27486" lon="1.33652">
        <ele>248</ele>
        <time>2022-06-10T14:05:10Z</time>
      </trkpt>
      <trkpt lat="44.27458" lon="1.33526">
        <ele>247</ele>
        <time>2022-06-10T14:07:16Z</time>
      </trkpt>
      <trkpt lat="44.27452" lon="1.33382">
        <ele>247</ele>
        <time>2022-06-10T14:09:34Z</time>
      </trkpt>
      <trkpt lat="44.27447" lon="1.3322">
        <ele>249</ele>
        <time>2022-06-10T14:12:08Z</time>
      </trkpt>
      <trkpt lat="44.2744" lon="1.33071">
        <ele>249</ele>
        <time>2022-06-10T14:14:31Z</time>
      </trkpt>
      <trkpt lat="44.27526" lon="1.32858">
        <ele>244</ele>
        <time>2022-06-10T14:18:25Z</time>
      </trkpt>
      <trkpt lat="44.27559" lon="1.32729">
        <ele>242</ele>
        <time>2022-06-10T14:20:36Z</time>
      </trkpt>
      <trkpt lat="44.27578" lon="1.32574">
        <ele>240</ele>
        <time>2022-06-10T14:23:06Z</time>
      </trkpt>
      <trkpt lat="44.27583" lon="1.32472">
        <ele>239</ele>
        <time>2022-06-10T14:24:44Z</time>
      </trkpt>
      <trkpt lat="44.27568" lon="1.32348">
        <ele>233</ele>
        <time>2022-06-10T14:26:44Z</time>
      </trkpt>
      <trkpt lat="44.27563" lon="1.32255">
        <ele>226</ele>
        <time>2022-06-10T14:28:13Z</time>
      </trkpt>
      <trkpt lat="44.27525" lon="1.32152">
        <ele>217</ele>
        <time>2022-06-10T14:30:04Z</time>
      </trkpt>
      <trkpt lat="44.27521" lon="1.32067">
        <ele>216</ele>
        <time>2022-06-10T14:31:25Z</time>
      </trkpt>
      <trkpt lat="44.27482" lon="1.3196">
        <ele>209</ele>
        <time>2022-06-10T14:33:20Z</time>
      </trkpt>
      <trkpt lat="44.27448" lon="1.31937">
        <ele>206</ele>
        <time>2022-06-10T14:34:10Z</time>
      </trkpt>
      <trkpt lat="44.27417" lon="1.3195">
        <ele>207</ele>
        <time>2022-06-10T14:34:53Z</time>
      </trkpt>
      <trkpt lat="44.27386" lon="1.32003">
        <ele>206</ele>
        <time>2022-06-10T14:35:59Z</time>
      </trkpt>
      <trkpt lat="44.27342" lon="1.32046">
        <ele>194</ele>
        <time>2022-06-10T14:37:10Z</time>
      </trkpt>
      <trkpt lat="44.27305" lon="1.32038">
        <ele>189</ele>
        <time>2022-06-10T14:38:00Z</time>
      </trkpt>
      <trkpt lat="44.27169" lon="1.31975">
        <ele>170</ele>
        <time>2022-06-10T14:41:12Z</time>
      </trkpt>
      <trkpt lat="44.27167" lon="1.31929">
        <ele>169</ele>
        <time>2022-06-10T14:41:56Z</time>
      </trkpt>
      <trkpt lat="44.2709" lon="1.31801">
        <ele>175</ele>
        <time>2022-06-10T14:44:35Z</time>
      </trkpt>
      <trkpt lat="44.27032" lon="1.31723">
        <ele>184</ele>
        <time>2022-06-10T14:46:23Z</time>
      </trkpt>
      <trkpt lat="44.27024" lon="1.31678">
        <ele>180</ele>
        <time>2022-06-10T14:47:07Z</time>
      </trkpt>
      <trkpt lat="44.27061" lon="1.31607">
        <ele>177</ele>
        <time>2022-06-10T14:48:31Z</time>
      </trkpt>
      <trkpt lat="44.27057" lon="1.31557">
        <ele>177</ele>
        <time>2022-06-10T14:49:19Z</time>
      </trkpt>
      <trkpt lat="44.27096" lon="1.31512">
        <ele>173</ele>
        <time>2022-06-10T14:50:27Z</time>
      </trkpt>
      <trkpt lat="44.27149" lon="1.3148">
        <ele>167</ele>
        <time>2022-06-10T14:51:44Z</time>
      </trkpt>
      <trkpt lat="44.27246" lon="1.31342">
        <ele>159</ele>
        <time>2022-06-10T14:54:48Z</time>
      </trkpt>
      <trkpt lat="44.27313" lon="1.31217">
        <ele>153</ele>
        <time>2022-06-10T14:57:18Z</time>
      </trkpt>
      <trkpt lat="44.27343" lon="1.31138">
        <ele>152</ele>
        <time>2022-06-10T14:58:43Z</time>
      </trkpt>
      <trkpt lat="44.2734" lon="1.31108">
        <ele>152</ele>
        <time>2022-06-10T14:59:12Z</time>
      </trkpt>
      <trkpt lat="44.27327" lon="1.31062">
        <ele>153</ele>
        <time>2022-06-10T14:59:59Z</time>
      </trkpt>
      <trkpt lat="44.2733" lon="1.31014">
        <ele>155</ele>
        <time>2022-06-10T15:00:45Z</time>
      </trkpt>
      <trkpt lat="44.27353" lon="1.30982">
        <ele>159</ele>
        <time>2022-06-10T15:01:29Z</time>
      </trkpt>
      <trkpt lat="44.27365" lon="1.30913">
        <ele>165</ele>
        <time>2022-06-10T15:02:36Z</time>
      </trkpt>
      <trkpt lat="44.27399" lon="1.30861">
        <ele>170</ele>
        <time>2022-06-10T15:03:44Z</time>
      </trkpt>
      <trkpt lat="44.27445" lon="1.30828">
        <ele>173</ele>
        <time>2022-06-10T15:04:53Z</time>
      </trkpt>
      <trkpt lat="44.27494" lon="1.30748">
        <ele>180</ele>
        <time>2022-06-10T15:06:33Z</time>
      </trkpt>
      <trkpt lat="44.27566" lon="1.30689">
        <ele>188</ele>
        <time>2022-06-10T15:08:25Z</time>
      </trkpt>
      <trkpt lat="44.27636" lon="1.30672">
        <ele>201</ele>
        <time>2022-06-10T15:10:00Z</time>
      </trkpt>
      <trkpt lat="44.27688" lon="1.30659">
        <ele>207</ele>
        <time>2022-06-10T15:11:10Z</time>
      </trkpt>
      <trkpt lat="44.27744" lon="1.30684">
        <ele>216</ele>
        <time>2022-06-10T15:12:29Z</time>
      </trkpt>
      <trkpt lat="44.27829" lon="1.30675">
        <ele>226</ele>
        <time>2022-06-10T15:14:22Z</time>
      </trkpt>
      <trkpt lat="44.27927" lon="1.30721">
        <ele>235</ele>
        <time>2022-06-10T15:16:40Z</time>
      </trkpt>
      <trkpt lat="44.27994" lon="1.30762">
        <ele>239</ele>
        <time>2022-06-10T15:18:18Z</time>
      </trkpt>
      <trkpt lat="44.28067" lon="1.30849">
        <ele>241</ele>
        <time>2022-06-10T15:20:26Z</time>
      </trkpt>
      <trkpt lat="44.2816" lon="1.3093">
        <ele>245</ele>
        <time>2022-06-10T15:22:52Z</time>
      </trkpt>
      <trkpt lat="44.28278" lon="1.30968">
        <ele>245</ele>
        <time>2022-06-10T15:25:34Z</time>
      </trkpt>
      <trkpt lat="44.28335" lon="1.31009">
        <ele>247</ele>
        <time>2022-06-10T15:26:59Z</time>
      </trkpt>
      <trkpt lat="44.2846" lon="1.3103">
        <ele>244</ele>
        <time>2022-06-10T15:29:47Z</time>
      </trkpt>
      <trkpt lat="44.28601" lon="1.31115">
        <ele>245</ele>
        <time>2022-06-10T15:33:12Z</time>
      </trkpt>
      <trkpt lat="44.28654" lon="1.31151">
        <ele>247</ele>
        <time>2022-06-10T15:34:31Z</time>
      </trkpt>
      <trkpt lat="44.28759" lon="1.31176">
        <ele>247</ele>
        <time>2022-06-10T15:36:53Z</time>
      </trkpt>
      <trkpt lat="44.28874" lon="1.31198">
        <ele>247</ele>
        <time>2022-06-10T15:39:28Z</time>
      </trkpt>
      <trkpt lat="44.28969" lon="1.3123">
        <ele>251</ele>
        <time>2022-06-10T15:41:38Z</time>
      </trkpt>
      <trkpt lat="44.29075" lon="1.3127">
        <ele>251</ele>
        <time>2022-06-10T15:44:05Z</time>
      </trkpt>
      <trkpt lat="44.2913" lon="1.31291">
        <ele>252</ele>
        <time>2022-06-10T15:45:21Z</time>
      </trkpt>
      <trkpt lat="44.29199" lon="1.31341">
        <ele>252</ele>
        <time>2022-06-10T15:47:05Z</time>
      </trkpt>
      <trkpt lat="44.29228" lon="1.3132">
        <ele>253</ele>
        <time>2022-06-10T15:47:48Z</time>
      </trkpt>
      <trkpt lat="44.29244" lon="1.31281">
        <ele>255</ele>
        <time>2022-06-10T15:48:31Z</time>
      </trkpt>
      <trkpt lat="44.29269" lon="1.31275">
        <ele>257</ele>
        <time>2022-06-10T15:49:05Z</time>
      </trkpt>
      <trkpt lat="44.29297" lon="1.31243">
        <ele>260</ele>
        <time>2022-06-10T15:49:53Z</time>
      </trkpt>
      <trkpt lat="44.29424" lon="1.31182">
        <ele>269</ele>
        <time>2022-06-10T15:52:53Z</time>
      </trkpt>
      <trkpt lat="44.29483" lon="1.31295">
        <ele>266</ele>
        <time>2022-06-10T15:55:06Z</time>
      </trkpt>
      <trkpt lat="44.29616" lon="1.31546">
        <ele>266</ele>
        <time>2022-06-10T16:00:04Z</time>
      </trkpt>
      <trkpt lat="44.29767" lon="1.31674">
        <ele>272</ele>
        <time>2022-06-10T16:04:00Z</time>
      </trkpt>
      <trkpt lat="44.29863" lon="1.31701">
        <ele>270</ele>
        <time>2022-06-10T16:06:11Z</time>
      </trkpt>
      <trkpt lat="44.29912" lon="1.31736">
        <ele>269</ele>
        <time>2022-06-10T16:07:24Z</time>
      </trkpt>
      <trkpt lat="44.29944" lon="1.31743">
        <ele>267</ele>
        <time>2022-06-10T16:08:07Z</time>
      </trkpt>
      <trkpt lat="44.29985" lon="1.31909">
        <ele>269</ele>
        <time>2022-06-10T16:10:55Z</time>
      </trkpt>
      <trkpt lat="44.30039" lon="1.32087">
        <ele>275</ele>
        <time>2022-06-10T16:14:00Z</time>
      </trkpt>
      <trkpt lat="44.30112" lon="1.32203">
        <ele>270</ele>
        <time>2022-06-10T16:16:27Z</time>
      </trkpt>
      <trkpt lat="44.30133" lon="1.32279">
        <ele>265</ele>
        <time>2022-06-10T16:17:45Z</time>
      </trkpt>
      <trkpt lat="44.30123" lon="1.325">
        <ele>266</ele>
        <time>2022-06-10T16:21:17Z</time>
      </trkpt>
      <trkpt lat="44.30114" lon="1.32621">
        <ele>266</ele>
        <time>2022-06-10T16:23:13Z</time>
      </trkpt>
      <trkpt lat="44.30022" lon="1.32654">
        <ele>266</ele>
        <time>2022-06-10T16:25:20Z</time>
      </trkpt>
      <trkpt lat="44.29895" lon="1.32718">
        <ele>261</ele>
        <time>2022-06-10T16:28:20Z</time>
      </trkpt>
      <trkpt lat="44.29808" lon="1.3274">
        <ele>260</ele>
        <time>2022-06-10T16:30:18Z</time>
      </trkpt>
      <trkpt lat="44.29701" lon="1.32861">
        <ele>259</ele>
        <time>2022-06-10T16:33:21Z</time>
      </trkpt>
      <trkpt lat="44.2967" lon="1.32902">
        <ele>259</ele>
        <time>2022-06-10T16:34:18Z</time>
      </trkpt>
      <trkpt lat="44.29612" lon="1.32946">
        <ele>258</ele>
        <time>2022-06-10T16:35:46Z</time>
      </trkpt>
      <trkpt lat="44.2957" lon="1.32998">
        <ele>257</ele>
        <time>2022-06-10T16:37:01Z</time>
      </trkpt>
      <trkpt lat="44.2954" lon="1.33062">
        <ele>254</ele>
        <time>2022-06-10T16:38:14Z</time>
      </trkpt>
      <trkpt lat="44.29494" lon="1.33166">
        <ele>251</ele>
        <time>2022-06-10T16:40:11Z</time>
      </trkpt>
      <trkpt lat="44.29426" lon="1.33238">
        <ele>252</ele>
        <time>2022-06-10T16:42:05Z</time>
      </trkpt>
      <trkpt lat="44.29359" lon="1.33278">
        <ele>251</ele>
        <time>2022-06-10T16:43:42Z</time>
      </trkpt>
      <trkpt lat="44.29253" lon="1.3334">
        <ele>250</ele>
        <time>2022-06-10T16:46:16Z</time>
      </trkpt>
      <trkpt lat="44.29218" lon="1.33298">
        <ele>242</ele>
        <time>2022-06-10T16:47:17Z</time>
      </trkpt>
      <trkpt lat="44.29181" lon="1.3334">
        <ele>242</ele>
        <time>2022-06-10T16:48:21Z</time>
      </trkpt>
      <trkpt lat="44.29087" lon="1.33391">
        <ele>233</ele>
        <time>2022-06-10T16:50:35Z</time>
      </trkpt>
      <trkpt lat="44.29047" lon="1.33432">
        <ele>233</ele>
        <time>2022-06-10T16:51:42Z</time>
      </trkpt>
      <trkpt lat="44.29025" lon="1.33413">
        <ele>225</ele>
        <time>2022-06-10T16:52:16Z</time>
      </trkpt>
      <trkpt lat="44.29005" lon="1.33436">
        <ele>225</ele>
        <time>2022-06-10T16:52:51Z</time>
      </trkpt>
      <trkpt lat="44.2901" lon="1.3345">
        <ele>229</ele>
        <time>2022-06-10T16:53:06Z</time>
      </trkpt>
      <trkpt lat="44.28963" lon="1.33494">
        <ele>234</ele>
        <time>2022-06-10T16:54:21Z</time>
      </trkpt>
      <trkpt lat="44.28761" lon="1.33505">
        <ele>213</ele>
        <time>2022-06-10T16:58:51Z</time>
      </trkpt>
      <trkpt lat="44.28642" lon="1.33643">
        <ele>196</ele>
        <time>2022-06-10T17:02:17Z</time>
      </trkpt>
      <trkpt lat="44.28627" lon="1.33734">
        <ele>191</ele>
        <time>2022-06-10T17:03:46Z</time>
      </trkpt>
      <trkpt lat="44.28596" lon="1.33791">
        <ele>180</ele>
        <time>2022-06-10T17:04:55Z</time>
      </trkpt>
      <trkpt lat="44.28524" lon="1.33839">
        <ele>169</ele>
        <time>2022-06-10T17:06:41Z</time>
      </trkpt>
      <trkpt lat="44.28471" lon="1.33873">
        <ele>167</ele>
        <time>2022-06-10T17:07:59Z</time>
      </trkpt>
      <trkpt lat="44.28442" lon="1.33769">
        <ele>168</ele>
        <time>2022-06-10T17:09:46Z</time>
      </trkpt>
      <trkpt lat="44.28362" lon="1.33762">
        <ele>167</ele>
        <time>2022-06-10T17:11:33Z</time>
      </trkpt>
      <trkpt lat="44.28253" lon="1.33849">
        <ele>173</ele>
        <time>2022-06-10T17:14:20Z</time>
      </trkpt>
      <trkpt lat="44.28159" lon="1.33813">
        <ele>188</ele>
        <time>2022-06-10T17:16:30Z</time>
      </trkpt>
      <trkpt lat="44.28126" lon="1.338">
        <ele>193</ele>
        <time>2022-06-10T17:17:16Z</time>
      </trkpt>
      <trkpt lat="44.28044" lon="1.33817">
        <ele>205</ele>
        <time>2022-06-10T17:19:07Z</time>
      </trkpt>
      <trkpt lat="44.27991" lon="1.33864">
        <ele>216</ele>
        <time>2022-06-10T17:20:30Z</time>
      </trkpt>
      <trkpt lat="44.27947" lon="1.33902">
        <ele>225</ele>
        <time>2022-06-10T17:21:40Z</time>
      </trkpt>
      <trkpt lat="44.27908" lon="1.33898">
        <ele>223</ele>
        <time>2022-06-10T17:22:32Z</time>
      </trkpt>
      <trkpt lat="44.27804" lon="1.33944">
        <ele>231</ele>
        <time>2022-06-10T17:24:57Z</time>
      </trkpt>
      <trkpt lat="44.27679" lon="1.34024">
        <ele>238</ele>
        <time>2022-06-10T17:28:01Z</time>
      </trkpt>
      <trkpt lat="44.27587" lon="1.34066">
        <ele>241</ele>
        <time>2022-06-10T17:30:10Z</time>
      </trkpt>
      <trkpt lat="44.27469" lon="1.34209">
        <ele>247</ele>
        <time>2022-06-10T17:33:38Z</time>
      </trkpt>
      <trkpt lat="44.27456" lon="1.34196">
        <ele>246</ele>
        <time>2022-06-10T17:34:00Z</time>
      </trkpt>
      <trkpt lat="44.27466" lon="1.34031">
        <ele>246</ele>
        <time>2022-06-10T17:36:38Z</time>
      </trkpt>
      <trkpt lat="44.27504" lon="1.33933">
        <ele>247</ele>
        <time>2022-06-10T17:38:24Z</time>
      </trkpt>
      <trkpt lat="44.27512" lon="1.33873">
        <ele>248</ele>
        <time>2022-06-10T17:39:23Z</time>
      </trkpt>
    </trkseg>
  </trk>
</gpx>